createdAt,value
2018-10-06T00:01:30.649Z,8.00
2018-10-06T00:03:58.748Z,8.10
2018-10-06T00:06:26.793Z,7.53
2018-10-06T00:08:54.865Z,7.97
2018-10-06T00:11:22.954Z,7.97
2018-10-06T00:13:51.029Z,7.60
2018-10-06T00:16:19.076Z,8.00
2018-10-06T00:18:47.180Z,7.50
2018-10-06T00:21:15.254Z,7.53
2018-10-06T00:23:43.321Z,8.10
2018-10-06T00:26:11.448Z,7.70
2018-10-06T00:28:39.516Z,7.63
2018-10-06T00:31:07.572Z,6.90
2018-10-06T00:33:35.624Z,7.87
2018-10-06T00:36:03.677Z,7.83
2018-10-06T00:38:31.738Z,8.50
2018-10-06T00:40:59.814Z,8.60
2018-10-06T00:43:27.868Z,8.13
2018-10-06T00:45:55.937Z,7.97
2018-10-06T00:48:24.030Z,8.60
2018-10-06T00:50:52.078Z,8.07
2018-10-06T00:53:21.168Z,8.03
2018-10-06T00:55:49.248Z,8.47
2018-10-06T00:58:17.301Z,7.50
2018-10-06T01:00:45.389Z,7.87
2018-10-06T01:03:13.481Z,7.50
2018-10-06T01:05:41.693Z,7.97
2018-10-06T01:08:09.777Z,7.30
2018-10-06T01:10:37.972Z,6.97
2018-10-06T01:13:06.049Z,7.23
2018-10-06T01:15:34.109Z,7.10
2018-10-06T01:18:02.193Z,7.80
2018-10-06T01:20:30.269Z,7.87
2018-10-06T01:22:58.359Z,7.43
2018-10-06T01:25:26.440Z,7.50
2018-10-06T01:27:54.491Z,7.13
2018-10-06T01:30:22.548Z,7.70
2018-10-06T01:32:50.625Z,7.10
2018-10-06T01:35:18.728Z,7.57
2018-10-06T01:37:46.801Z,7.80
2018-10-06T01:40:14.868Z,7.00
2018-10-06T01:42:42.927Z,7.13
2018-10-06T01:45:11.017Z,7.43
2018-10-06T01:47:39.112Z,8.10
2018-10-06T01:50:07.473Z,8.23
2018-10-06T01:52:35.482Z,8.57
2018-10-06T01:55:03.565Z,8.17
2018-10-06T01:57:31.628Z,8.03
2018-10-06T01:59:59.700Z,7.77
2018-10-06T02:02:27.796Z,8.27
2018-10-06T02:04:55.852Z,7.87
2018-10-06T02:07:24.127Z,8.10
2018-10-06T02:09:52.209Z,7.90
2018-10-06T02:12:20.268Z,7.40
2018-10-06T02:14:48.342Z,8.00
2018-10-06T02:17:16.426Z,7.57
2018-10-06T02:19:44.484Z,7.43
2018-10-06T02:22:12.556Z,7.77
2018-10-06T02:24:40.624Z,7.93
2018-10-06T02:27:08.697Z,7.60
2018-10-06T02:29:36.773Z,7.30
2018-10-06T02:32:05.153Z,7.83
2018-10-06T02:34:33.222Z,7.47
2018-10-06T02:37:01.301Z,8.10
2018-10-06T02:39:29.364Z,8.47
2018-10-06T02:41:57.416Z,7.60
2018-10-06T02:44:25.500Z,8.17
2018-10-06T02:46:53.618Z,7.90
2018-10-06T02:49:21.765Z,8.17
2018-10-06T02:51:49.833Z,8.07
2018-10-06T02:54:17.918Z,8.20
2018-10-06T02:56:45.977Z,8.43
2018-10-06T02:59:14.090Z,7.80
2018-10-06T03:01:42.160Z,8.20
2018-10-06T03:04:10.216Z,8.77
2018-10-06T03:06:38.264Z,8.30
2018-10-06T03:09:07.647Z,8.60
2018-10-06T03:11:35.729Z,8.27
2018-10-06T03:14:03.780Z,8.30
2018-10-06T03:16:31.848Z,8.47
2018-10-06T03:18:59.925Z,8.30
2018-10-06T03:21:27.970Z,8.10
2018-10-06T03:23:56.025Z,8.17
2018-10-06T03:26:24.072Z,7.97
2018-10-06T03:28:52.106Z,8.50
2018-10-06T03:31:20.169Z,7.90
2018-10-06T03:33:48.212Z,8.80
2018-10-06T03:36:16.278Z,8.33
2018-10-06T03:38:44.333Z,8.20
2018-10-06T03:41:12.380Z,8.23
2018-10-06T03:43:40.447Z,8.00
2018-10-06T03:46:09.976Z,8.80
2018-10-06T03:48:38.057Z,8.47
2018-10-06T03:51:06.105Z,8.70
2018-10-06T03:53:34.165Z,8.93
2018-10-06T03:56:02.218Z,8.80
2018-10-06T03:58:30.252Z,9.27
2018-10-06T04:00:58.304Z,9.20
2018-10-06T04:03:26.385Z,8.87
2018-10-06T04:05:54.437Z,9.20
2018-10-06T04:08:22.476Z,9.27
2018-10-06T04:10:50.549Z,9.27
2018-10-06T04:13:18.592Z,8.93
2018-10-06T04:15:46.629Z,8.50
2018-10-06T04:18:14.678Z,9.50
2018-10-06T04:20:42.750Z,8.93
2018-10-06T04:23:10.825Z,9.47
2018-10-06T04:25:38.901Z,8.47
2018-10-06T04:28:06.973Z,9.10
2018-10-06T04:30:35.046Z,8.77
2018-10-06T04:33:03.097Z,9.03
2018-10-06T04:35:31.249Z,9.53
2018-10-06T04:37:59.305Z,8.90
2018-10-06T04:40:27.380Z,9.00
2018-10-06T04:42:55.439Z,9.30
2018-10-06T04:45:23.521Z,9.30
2018-10-06T04:47:51.565Z,9.10
2018-10-06T04:50:19.648Z,8.97
2018-10-06T04:52:47.698Z,9.17
2018-10-06T04:55:15.760Z,9.73
2018-10-06T04:57:43.812Z,9.00
2018-10-06T05:00:11.877Z,9.37
2018-10-06T05:02:39.939Z,12.67
2018-10-06T05:05:07.992Z,16.43
2018-10-06T05:07:36.044Z,13.37
2018-10-06T05:10:04.133Z,10.47
2018-10-06T05:12:32.183Z,10.27
2018-10-06T05:15:00.237Z,9.97
2018-10-06T05:17:28.308Z,9.60
2018-10-06T05:19:56.361Z,8.77
2018-10-06T05:22:24.436Z,10.30
2018-10-06T05:24:52.537Z,10.27
2018-10-06T05:27:20.610Z,10.33
2018-10-06T05:29:48.644Z,9.23
2018-10-06T05:32:16.684Z,9.77
2018-10-06T05:34:44.744Z,9.70
2018-10-06T05:37:12.793Z,10.00
2018-10-06T05:39:40.865Z,10.63
2018-10-06T05:42:08.909Z,9.97
2018-10-06T05:44:36.953Z,9.50
2018-10-06T05:47:05.112Z,12.53
2018-10-06T05:49:33.373Z,17.00
2018-10-06T05:52:01.441Z,10.47
2018-10-06T05:54:29.481Z,9.93
2018-10-06T05:56:57.537Z,9.57
2018-10-06T05:59:25.590Z,9.30
2018-10-06T06:01:53.640Z,9.53
2018-10-06T06:04:21.688Z,9.50
2018-10-06T06:06:49.761Z,10.00
2018-10-06T06:09:17.816Z,9.90
2018-10-06T06:11:45.856Z,9.27
2018-10-06T06:14:13.924Z,9.00
2018-10-06T06:16:41.988Z,8.67
2018-10-06T06:19:10.049Z,9.30
2018-10-06T06:21:38.136Z,9.10
2018-10-06T06:24:06.199Z,9.13
2018-10-06T06:26:34.256Z,9.10
2018-10-06T06:29:02.326Z,8.93
2018-10-06T06:31:30.524Z,9.07
2018-10-06T06:33:58.482Z,9.30
2018-10-06T06:36:26.566Z,8.80
2018-10-06T06:38:54.633Z,8.67
2018-10-06T06:41:23.732Z,8.17
2018-10-06T06:43:51.874Z,9.03
2018-10-06T06:46:19.958Z,8.83
2018-10-06T06:48:48.110Z,8.73
2018-10-06T06:51:16.229Z,8.37
2018-10-06T06:53:44.276Z,8.30
2018-10-06T06:56:12.341Z,8.50
2018-10-06T06:58:40.407Z,7.97
2018-10-06T07:01:08.644Z,7.43
2018-10-06T07:03:36.707Z,8.10
2018-10-06T07:06:04.745Z,7.60
2018-10-06T07:08:32.837Z,8.27
2018-10-06T07:11:02.128Z,8.07
2018-10-06T07:13:30.169Z,8.23
2018-10-06T07:15:58.288Z,7.77
2018-10-06T07:18:27.539Z,8.30
2018-10-06T07:20:55.726Z,7.80
2018-10-06T07:23:23.793Z,7.47
2018-10-06T07:25:51.874Z,7.30
2018-10-06T07:28:20.370Z,7.47
2018-10-06T07:30:48.666Z,7.60
2018-10-06T07:33:16.706Z,7.30
2018-10-06T07:35:44.788Z,7.20
2018-10-06T07:38:12.870Z,7.57
2018-10-06T07:40:41.002Z,7.83
2018-10-06T07:43:09.265Z,7.83
2018-10-06T07:45:37.329Z,7.70
2018-10-06T07:48:05.389Z,6.67
2018-10-06T07:50:33.461Z,6.77
2018-10-06T07:53:01.549Z,6.70
2018-10-06T07:55:29.576Z,6.93
2018-10-06T07:57:57.636Z,8.23
2018-10-06T08:00:25.700Z,7.13
2018-10-06T08:02:53.749Z,6.93
2018-10-06T08:05:21.862Z,6.60
2018-10-06T08:07:49.918Z,6.80
2018-10-06T08:10:17.966Z,6.83
2018-10-06T08:12:46.107Z,7.00
2018-10-06T08:15:14.223Z,6.40
2018-10-06T08:17:42.288Z,6.47
2018-10-06T08:20:10.383Z,6.60
2018-10-06T08:22:38.510Z,6.53
2018-10-06T08:25:06.895Z,6.43
2018-10-06T08:27:35.196Z,6.60
2018-10-06T08:30:05.748Z,6.80
2018-10-06T08:32:33.834Z,6.20
2018-10-06T08:35:01.892Z,6.63
2018-10-06T08:37:29.933Z,7.07
2018-10-06T08:39:58.610Z,6.53
2018-10-06T08:42:26.668Z,6.40
2018-10-06T08:44:54.717Z,6.40
2018-10-06T08:47:22.769Z,6.57
2018-10-06T08:49:50.925Z,6.53
2018-10-06T08:52:18.937Z,7.00
2018-10-06T08:54:46.990Z,9.47
2018-10-06T08:57:15.054Z,6.63
2018-10-06T08:59:43.102Z,6.50
2018-10-06T09:02:11.173Z,7.10
2018-10-06T09:04:39.237Z,6.70
2018-10-06T09:07:07.276Z,7.10
2018-10-06T09:09:35.329Z,7.00
2018-10-06T09:12:03.406Z,6.33
2018-10-06T09:14:31.488Z,6.70
2018-10-06T09:16:59.616Z,6.50
2018-10-06T09:19:27.679Z,7.13
2018-10-06T09:21:55.756Z,6.40
2018-10-06T09:24:23.828Z,6.07
2018-10-06T09:26:51.893Z,6.63
2018-10-06T09:29:19.953Z,6.30
2018-10-06T09:31:48.077Z,6.33
2018-10-06T09:34:16.157Z,6.93
2018-10-06T09:36:44.378Z,6.30
2018-10-06T09:39:12.480Z,7.37
2018-10-06T09:41:40.528Z,6.60
2018-10-06T09:44:08.977Z,6.93
2018-10-06T09:46:37.115Z,6.90
2018-10-06T09:49:05.553Z,7.07
2018-10-06T09:51:34.180Z,8.27
2018-10-06T09:54:02.269Z,10.83
2018-10-06T09:56:30.686Z,6.70
2018-10-06T09:58:58.796Z,7.00
2018-10-06T10:01:32.544Z,6.83
2018-10-06T10:04:06.264Z,6.70
2018-10-06T10:06:34.506Z,6.30
2018-10-06T10:09:02.662Z,5.93
2018-10-06T10:11:30.835Z,6.23
2018-10-06T10:13:58.926Z,6.33
2018-10-06T10:16:27.107Z,6.40
2018-10-06T10:18:55.235Z,6.23
2018-10-06T10:21:23.324Z,6.70
2018-10-06T10:23:51.540Z,7.90
2018-10-06T10:26:19.633Z,6.10
2018-10-06T10:28:47.861Z,6.07
2018-10-06T10:31:15.914Z,5.90
2018-10-06T10:33:44.284Z,5.80
2018-10-06T10:36:12.546Z,6.10
2018-10-06T10:38:40.735Z,6.40
2018-10-06T10:41:09.960Z,6.20
2018-10-06T10:43:39.410Z,5.83
2018-10-06T10:46:21.621Z,6.00
2018-10-06T10:48:49.784Z,6.07
2018-10-06T10:51:17.993Z,6.10
2018-10-06T10:53:46.396Z,7.40
2018-10-06T10:56:14.714Z,11.00
2018-10-06T10:58:42.809Z,8.73
2018-10-06T11:01:11.066Z,6.20
2018-10-06T11:03:39.171Z,6.47
2018-10-06T11:06:07.316Z,6.37
2018-10-06T11:08:35.476Z,6.07
2018-10-06T11:11:03.713Z,6.20
2018-10-06T11:13:34.507Z,6.20
2018-10-06T11:16:02.750Z,6.40
2018-10-06T11:18:30.797Z,6.80
2018-10-06T11:20:59.704Z,6.00
2018-10-06T11:23:27.778Z,7.00
2018-10-06T11:25:56.036Z,6.77
2018-10-06T11:28:24.147Z,6.67
2018-10-06T11:30:52.228Z,6.07
2018-10-06T11:33:20.540Z,6.20
2018-10-06T11:35:48.687Z,6.20
2018-10-06T11:38:16.849Z,6.57
2018-10-06T11:40:44.843Z,6.60
2018-10-06T11:43:13.059Z,5.93
2018-10-06T11:45:41.186Z,6.27
2018-10-06T11:48:09.273Z,6.70
2018-10-06T11:50:37.673Z,5.93
2018-10-06T11:53:06.006Z,6.30
2018-10-06T11:55:34.113Z,7.03
2018-10-06T11:58:02.279Z,6.77
2018-10-06T12:00:30.451Z,6.00
2018-10-06T12:02:58.596Z,6.13
2018-10-06T12:05:26.744Z,10.27
2018-10-06T12:07:55.862Z,7.60
2018-10-06T12:10:23.970Z,16.23
2018-10-06T12:12:52.108Z,25.77
2018-10-06T12:15:20.209Z,35.37
2018-10-06T12:17:48.396Z,15.70
2018-10-06T12:20:16.522Z,47.03
2018-10-06T12:22:44.617Z,20.00
2018-10-06T12:25:12.816Z,8.03
2018-10-06T12:27:40.929Z,10.97
2018-10-06T12:30:09.077Z,10.20
2018-10-06T12:32:37.169Z,13.83
2018-10-06T12:35:05.420Z,6.33
2018-10-06T12:37:33.469Z,7.90
2018-10-06T12:40:01.628Z,6.30
2018-10-06T12:42:29.754Z,7.10
2018-10-06T12:44:57.890Z,6.10
2018-10-06T12:47:26.064Z,5.63
2018-10-06T12:49:54.222Z,5.57
2018-10-06T12:52:22.513Z,5.93
2018-10-06T12:54:50.702Z,5.63
2018-10-06T12:57:18.870Z,5.77
2018-10-06T12:59:47.027Z,6.23
2018-10-06T13:02:15.161Z,6.67
2018-10-06T13:04:43.344Z,5.47
2018-10-06T13:07:11.519Z,5.67
2018-10-06T13:09:39.641Z,5.70
2018-10-06T13:12:07.904Z,5.30
2018-10-06T13:14:36.026Z,8.20
2018-10-06T13:17:04.241Z,6.17
2018-10-06T13:19:32.376Z,5.43
2018-10-06T13:22:00.486Z,5.73
2018-10-06T13:24:28.542Z,5.53
2018-10-06T13:26:56.751Z,5.40
2018-10-06T13:29:25.058Z,5.30
2018-10-06T13:31:53.542Z,5.83
2018-10-06T13:34:21.597Z,5.37
2018-10-06T13:36:49.750Z,5.37
2018-10-06T13:39:17.803Z,5.53
2018-10-06T13:41:45.890Z,7.33
2018-10-06T13:44:13.956Z,7.17
2018-10-06T13:46:42.057Z,6.10
2018-10-06T13:49:10.150Z,5.83
2018-10-06T13:51:38.283Z,11.30
2018-10-06T13:54:06.343Z,6.60
2018-10-06T13:56:34.489Z,6.30
2018-10-06T13:59:02.602Z,6.00
2018-10-06T14:01:30.753Z,6.37
2018-10-06T14:03:58.885Z,6.20
2018-10-06T14:06:26.943Z,5.97
2018-10-06T14:08:55.049Z,5.50
2018-10-06T14:11:23.169Z,5.43
2018-10-06T14:13:51.216Z,6.00
2018-10-06T14:16:19.349Z,5.67
2018-10-06T14:18:47.417Z,5.93
2018-10-06T14:21:15.509Z,5.90
2018-10-06T14:23:43.601Z,6.00
2018-10-06T14:26:11.701Z,6.30
2018-10-06T14:28:39.776Z,5.93
2018-10-06T14:31:07.880Z,6.03
2018-10-06T14:33:35.973Z,5.63
2018-10-06T14:36:04.066Z,6.10
2018-10-06T14:38:32.190Z,5.83
2018-10-06T14:41:01.161Z,5.67
2018-10-06T14:43:29.360Z,6.30
2018-10-06T14:45:57.502Z,5.87
2018-10-06T14:48:25.678Z,6.00
2018-10-06T14:50:53.770Z,5.67
2018-10-06T14:53:21.864Z,6.10
2018-10-06T14:55:50.034Z,6.97
2018-10-06T14:58:18.161Z,6.73
2018-10-06T15:00:46.234Z,6.50
2018-10-06T15:03:14.337Z,6.43
2018-10-06T15:05:42.415Z,7.23
2018-10-06T15:08:10.503Z,7.00
2018-10-06T15:10:38.668Z,6.80
2018-10-06T15:13:06.733Z,6.57
2018-10-06T15:15:34.828Z,7.33
2018-10-06T15:18:02.905Z,7.27
2018-10-06T15:20:30.970Z,7.97
2018-10-06T15:22:59.050Z,7.90
2018-10-06T15:25:27.144Z,7.47
2018-10-06T15:27:55.263Z,7.17
2018-10-06T15:30:23.418Z,7.50
2018-10-06T15:32:51.509Z,7.43
2018-10-06T15:35:19.672Z,7.33
2018-10-06T15:37:47.777Z,7.47
2018-10-06T15:40:15.832Z,8.13
2018-10-06T15:42:43.918Z,7.20
2018-10-06T15:45:12.097Z,6.90
2018-10-06T15:47:40.243Z,7.73
2018-10-06T15:50:08.344Z,7.90
2018-10-06T15:52:36.425Z,25.93
2018-10-06T15:55:04.545Z,7.70
2018-10-06T15:57:32.589Z,8.47
2018-10-06T16:00:00.799Z,7.57
2018-10-06T16:02:28.884Z,7.77
2018-10-06T16:04:56.971Z,7.27
2018-10-06T16:07:25.039Z,8.10
2018-10-06T16:09:53.097Z,8.97
2018-10-06T16:12:21.175Z,14.80
2018-10-06T16:14:49.240Z,8.70
2018-10-06T16:17:17.330Z,9.47
2018-10-06T16:19:45.430Z,9.00
2018-10-06T16:22:13.506Z,8.50
2018-10-06T16:24:41.566Z,8.70
2018-10-06T16:27:09.653Z,8.60
2018-10-06T16:29:37.856Z,9.23
2018-10-06T16:32:05.957Z,8.93
2018-10-06T16:34:34.027Z,9.03
2018-10-06T16:37:02.091Z,9.67
2018-10-06T16:39:30.167Z,8.67
2018-10-06T16:41:58.377Z,9.13
2018-10-06T16:44:26.551Z,9.10
2018-10-06T16:46:54.658Z,9.13
2018-10-06T16:49:22.763Z,9.00
2018-10-06T16:51:50.998Z,8.90
2018-10-06T16:54:19.040Z,9.37
2018-10-06T16:56:47.138Z,9.70
2018-10-06T16:59:15.225Z,10.47
2018-10-06T17:01:43.484Z,9.83
2018-10-06T17:04:11.491Z,9.87
2018-10-06T17:06:39.729Z,9.60
2018-10-06T17:09:09.258Z,9.80
2018-10-06T17:11:37.338Z,10.50
2018-10-06T17:14:05.696Z,11.77
2018-10-06T17:16:33.801Z,11.03
2018-10-06T17:19:01.974Z,10.17
2018-10-06T17:21:30.074Z,10.20
2018-10-06T17:23:58.120Z,9.93
2018-10-06T17:26:26.189Z,9.47
2018-10-06T17:28:54.278Z,10.27
2018-10-06T17:31:22.386Z,10.07
2018-10-06T17:33:50.449Z,10.33
2018-10-06T17:36:18.521Z,9.80
2018-10-06T17:38:46.755Z,11.17
2018-10-06T17:41:14.815Z,10.67
2018-10-06T17:43:42.925Z,10.87
2018-10-06T17:46:11.048Z,10.60
2018-10-06T17:48:39.443Z,10.90
2018-10-06T17:51:07.548Z,10.23
2018-10-06T17:53:35.707Z,10.03
2018-10-06T17:56:03.980Z,10.00
2018-10-06T17:58:32.051Z,10.40
2018-10-06T18:01:00.665Z,10.33
2018-10-06T18:03:28.787Z,9.50
2018-10-06T18:05:56.871Z,9.67
2018-10-06T18:08:24.951Z,17.67
2018-10-06T18:10:53.102Z,11.90
2018-10-06T18:13:21.286Z,10.57
2018-10-06T18:15:49.347Z,10.27
2018-10-06T18:18:17.587Z,9.80
2018-10-06T18:20:45.798Z,9.93
2018-10-06T18:23:13.778Z,10.67
2018-10-06T18:25:41.978Z,11.17
2018-10-06T18:28:10.427Z,10.63
2018-10-06T18:30:38.491Z,10.70
2018-10-06T18:33:06.564Z,10.70
2018-10-06T18:35:34.627Z,10.30
2018-10-06T18:38:02.705Z,11.00
2018-10-06T18:40:30.781Z,11.00
2018-10-06T18:42:58.871Z,12.23
2018-10-06T18:45:26.920Z,11.57
2018-10-06T18:47:54.977Z,11.30
2018-10-06T18:50:23.865Z,10.30
2018-10-06T18:52:52.122Z,9.90
2018-10-06T18:55:20.193Z,10.60
2018-10-06T18:57:48.257Z,10.57
2018-10-06T19:00:16.374Z,10.17
2018-10-06T19:02:44.440Z,11.40
2018-10-06T19:05:12.532Z,11.00
2018-10-06T19:07:40.615Z,11.07
2018-10-06T19:10:08.778Z,11.40
2018-10-06T19:12:36.780Z,10.33
2018-10-06T19:15:04.957Z,10.73
2018-10-06T19:17:33.062Z,10.87
2018-10-06T19:20:01.132Z,11.13
2018-10-06T19:22:29.237Z,10.77
2018-10-06T19:24:57.302Z,10.43
2018-10-06T19:27:25.377Z,10.57
2018-10-06T19:29:53.465Z,10.93
2018-10-06T19:32:21.576Z,10.87
2018-10-06T19:34:49.657Z,11.33
2018-10-06T19:37:17.791Z,10.63
2018-10-06T19:39:45.932Z,11.23
2018-10-06T19:42:13.990Z,11.07
2018-10-06T19:44:42.098Z,11.13
2018-10-06T19:47:10.173Z,11.03
2018-10-06T19:49:38.233Z,11.20
2018-10-06T19:52:06.362Z,11.40
2018-10-06T19:54:34.462Z,11.20
2018-10-06T19:57:02.551Z,10.83
2018-10-06T19:59:30.617Z,11.10
2018-10-06T20:01:58.688Z,11.00
2018-10-06T20:04:26.748Z,11.40
2018-10-06T20:06:54.799Z,10.73
2018-10-06T20:09:22.904Z,10.97
2018-10-06T20:11:50.965Z,10.57
2018-10-06T20:14:19.040Z,11.63
2018-10-06T20:16:47.109Z,11.10
2018-10-06T20:19:15.228Z,10.77
2018-10-06T20:21:43.273Z,10.83
2018-10-06T20:24:11.332Z,16.40
2018-10-06T20:26:39.468Z,10.97
2018-10-06T20:29:07.572Z,11.40
2018-10-06T20:31:35.634Z,10.93
2018-10-06T20:34:03.674Z,11.23
2018-10-06T20:36:31.766Z,10.53
2018-10-06T20:38:59.852Z,10.90
2018-10-06T20:41:27.953Z,10.60
2018-10-06T20:43:56.049Z,10.17
2018-10-06T20:46:24.179Z,10.93
2018-10-06T20:48:52.490Z,10.53
2018-10-06T20:51:20.610Z,10.93
2018-10-06T20:53:48.665Z,10.27
2018-10-06T20:56:16.749Z,10.70
2018-10-06T20:58:44.822Z,11.53
2018-10-06T21:01:12.889Z,11.27
2018-10-06T21:03:40.984Z,12.23
2018-10-06T21:06:09.054Z,10.37
2018-10-06T21:08:37.233Z,10.80
2018-10-06T21:11:05.289Z,11.60
2018-10-06T21:13:33.424Z,10.43
2018-10-06T21:16:01.488Z,10.63
2018-10-06T21:18:29.692Z,10.40
2018-10-06T21:20:57.837Z,10.27
2018-10-06T21:23:25.992Z,10.10
2018-10-06T21:25:54.073Z,10.83
2018-10-06T21:28:22.153Z,9.87
2018-10-06T21:30:50.292Z,10.27
2018-10-06T21:33:18.505Z,10.07
2018-10-06T21:35:46.660Z,10.47
2018-10-06T21:38:14.729Z,10.60
2018-10-06T21:40:42.788Z,10.37
2018-10-06T21:43:10.873Z,10.63
2018-10-06T21:45:39.786Z,9.93
2018-10-06T21:48:08.440Z,10.73
2018-10-06T21:50:37.586Z,10.57
2018-10-06T21:53:05.618Z,10.40
2018-10-06T21:55:33.685Z,11.03
2018-10-06T21:58:01.777Z,10.77
2018-10-06T22:00:30.745Z,10.63
2018-10-06T22:02:58.796Z,10.50
2018-10-06T22:05:26.844Z,10.37
2018-10-06T22:07:54.970Z,10.50
2018-10-06T22:10:23.672Z,10.50
2018-10-06T22:12:51.776Z,10.93
2018-10-06T22:15:19.921Z,10.90
2018-10-06T22:17:47.909Z,10.97
2018-10-06T22:20:16.177Z,11.33
2018-10-06T22:22:44.244Z,11.40
2018-10-06T22:25:12.309Z,10.43
2018-10-06T22:27:40.438Z,11.00
2018-10-06T22:30:08.858Z,11.13
2018-10-06T22:32:36.957Z,10.93
2018-10-06T22:35:05.127Z,11.00
2018-10-06T22:37:33.601Z,11.03
2018-10-06T22:40:01.740Z,11.50
2018-10-06T22:42:30.419Z,11.30
2018-10-06T22:44:58.503Z,10.90
2018-10-06T22:47:26.613Z,10.63
2018-10-06T22:49:54.705Z,10.90
2018-10-06T22:52:22.800Z,11.27
2018-10-06T22:54:50.897Z,11.47
2018-10-06T22:57:18.949Z,11.23
2018-10-06T22:59:47.027Z,11.27
2018-10-06T23:02:15.244Z,10.83
2018-10-06T23:04:43.310Z,10.87
2018-10-06T23:07:11.368Z,10.40
2018-10-06T23:09:39.652Z,10.77
2018-10-06T23:12:07.796Z,10.83
2018-10-06T23:14:35.854Z,10.90
2018-10-06T23:17:03.900Z,11.00
2018-10-06T23:19:31.977Z,10.90
2018-10-06T23:22:00.581Z,10.60
2018-10-06T23:24:28.640Z,11.47
2018-10-06T23:26:56.707Z,11.07
2018-10-06T23:29:24.792Z,10.63
2018-10-06T23:31:52.969Z,11.00
2018-10-06T23:34:21.029Z,11.80
2018-10-06T23:36:49.089Z,11.73
2018-10-06T23:39:17.159Z,11.27
2018-10-06T23:41:45.314Z,11.67
2018-10-06T23:44:13.368Z,11.73
2018-10-06T23:46:41.421Z,11.73
2018-10-06T23:49:09.476Z,11.10
2018-10-06T23:51:37.553Z,11.13
2018-10-06T23:54:05.620Z,10.33
2018-10-06T23:56:33.692Z,11.30
2018-10-06T23:59:01.737Z,11.53
